Time,TemperatureF,DewpointF,PressureIn,WindDirection,WindDirectionDegrees,WindSpeedMPH,WindSpeedGustMPH,Humidity,HourlyPrecipIn,Conditions,Clouds,dailyrainin,SoftwareType,DateUTC
2013-06-09 00:00:00,57.1,55.7,29.92,WSW,237,0.0,0.0,95,0.00,,,0.00,Wunderground v.1.15,2013-06-09 04:00:00,
2013-06-09 00:05:00,57.1,55.7,29.93,WSW,237,0.0,0.0,95,0.00,,,0.00,Wunderground v.1.15,2013-06-09 04:05:00,
2013-06-09 00:10:00,57.2,56.1,29.93,WSW,237,0.0,0.0,96,0.00,,,0.00,Wunderground v.1.15,2013-06-09 04:10:00,
2013-06-09 00:15:00,57.3,56.2,29.93,WSW,237,0.0,0.0,96,0.00,,,0.00,Wunderground v.1.15,2013-06-09 04:15:00,
2013-06-09 00:20:00,57.4,56.3,29.92,WSW,237,0.0,0.0,96,0.00,,,0.00,Wunderground v.1.15,2013-06-09 04:20:00,
2013-06-09 00:25:00,57.5,56.4,29.93,WSW,237,0.0,0.0,96,0.00,,,0.00,Wunderground v.1.15,2013-06-09 04:25:00,
2013-06-09 00:30:00,57.6,56.5,29.93,WSW,237,0.0,0.0,96,0.00,,,0.00,Wunderground v.1.15,2013-06-09 04:30:00,
2013-06-09 00:35:00,57.7,56.6,29.93,WSW,237,0.0,0.0,96,0.00,,,0.00,Wunderground v.1.15,2013-06-09 04:35:00,
2013-06-09 00:40:00,57.9,56.8,29.93,WSW,237,0.0,0.0,96,0.00,,,0.00,Wunderground v.1.15,2013-06-09 04:40:00,
2013-06-09 00:45:00,58.2,57.1,29.93,WSW,237,0.0,0.0,96,0.00,,,0.00,Wunderground v.1.15,2013-06-09 04:45:00,
2013-06-09 00:55:00,58.5,57.4,29.94,WSW,237,0.0,0.0,96,0.00,,,0.00,Wunderground v.1.15,2013-06-09 04:55:00,
2013-06-09 01:01:00,58.6,57.5,29.94,WSW,237,0.0,0.0,96,0.00,,,0.00,Wunderground v.1.15,2013-06-09 05:01:00,
2013-06-09 01:10:00,58.6,57.5,29.94,WSW,237,0.0,0.0,96,0.00,,,0.00,Wunderground v.1.15,2013-06-09 05:10:00,
2013-06-09 01:15:00,58.6,57.5,29.94,WSW,237,0.0,0.0,96,0.00,,,0.00,Wunderground v.1.15,2013-06-09 05:15:00,
2013-06-09 01:20:00,58.7,57.6,29.94,WSW,237,0.0,0.0,96,0.00,,,0.00,Wunderground v.1.15,2013-06-09 05:20:00,
2013-06-09 01:25:00,58.6,57.5,29.94,WSW,237,0.0,0.0,96,0.00,,,0.00,Wunderground v.1.15,2013-06-09 05:25:00,
2013-06-09 01:30:00,58.7,57.6,29.94,WSW,237,0.0,0.0,96,0.00,,,0.00,Wunderground v.1.15,2013-06-09 05:30:00,
2013-06-09 01:35:00,58.6,57.5,29.94,WSW,237,0.0,0.0,96,0.00,,,0.00,Wunderground v.1.15,2013-06-09 05:35:00,
2013-06-09 01:40:00,58.6,57.5,29.94,WSW,237,0.0,0.0,96,0.00,,,0.00,Wunderground v.1.15,2013-06-09 05:40:00,
2013-06-09 01:45:00,58.7,57.6,29.94,WSW,237,0.0,0.0,96,0.00,,,0.00,Wunderground v.1.15,2013-06-09 05:45:00,
2013-06-09 01:50:00,58.7,57.6,29.94,WSW,237,0.0,0.0,96,0.00,,,0.00,Wunderground v.1.15,2013-06-09 05:50:00,
2013-06-09 01:55:00,58.6,57.5,29.95,WSW,237,0.0,0.0,96,0.00,,,0.00,Wunderground v.1.15,2013-06-09 05:55:00,
2013-06-09 02:00:00,58.4,57.3,29.94,WSW,237,0.0,0.0,96,0.00,,,0.00,Wunderground v.1.15,2013-06-09 06:00:00,
2013-06-09 02:05:00,58.4,57.3,29.94,WSW,237,0.0,0.0,96,0.00,,,0.00,Wunderground v.1.15,2013-06-09 06:05:00,
2013-06-09 02:15:00,58.5,57.4,29.94,WSW,237,0.0,0.0,96,0.00,,,0.00,Wunderground v.1.15,2013-06-09 06:15:00,
2013-06-09 02:20:00,58.6,57.5,29.95,WSW,237,0.0,0.0,96,0.00,,,0.00,Wunderground v.1.15,2013-06-09 06:20:00,
2013-06-09 02:25:00,58.6,57.5,29.94,WSW,237,0.0,0.0,96,0.00,,,0.00,Wunderground v.1.15,2013-06-09 06:25:00,
2013-06-09 02:30:00,58.6,57.5,29.94,WSW,237,0.0,0.0,96,0.00,,,0.00,Wunderground v.1.15,2013-06-09 06:30:00,
2013-06-09 02:35:00,58.5,57.4,29.94,WSW,237,1.0,1.0,96,0.00,,,0.00,Wunderground v.1.15,2013-06-09 06:35:00,
2013-06-09 02:40:00,58.4,57.3,29.94,WSW,237,0.0,0.0,96,0.00,,,0.00,Wunderground v.1.15,2013-06-09 06:40:00,
2013-06-09 02:45:00,58.4,57.3,29.94,WSW,237,0.0,0.0,96,0.00,,,0.00,Wunderground v.1.15,2013-06-09 06:45:00,
2013-06-09 02:50:00,58.2,57.1,29.94,WSW,237,0.0,0.0,96,0.00,,,0.00,Wunderground v.1.15,2013-06-09 06:50:00,
2013-06-09 02:55:00,58.1,57.0,29.94,WSW,237,0.0,0.0,96,0.00,,,0.00,Wunderground v.1.15,2013-06-09 06:55:00,
2013-06-09 03:01:00,58.0,56.9,29.95,WSW,237,0.0,0.0,96,0.00,,,0.00,Wunderground v.1.15,2013-06-09 07:01:00,
2013-06-09 03:05:00,57.9,56.8,29.95,WSW,237,0.0,0.0,96,0.00,,,0.00,Wunderground v.1.15,2013-06-09 07:05:00,
2013-06-09 03:10:00,57.8,56.7,29.95,WSW,237,0.0,0.0,96,0.00,,,0.00,Wunderground v.1.15,2013-06-09 07:10:00,
2013-06-09 03:15:00,57.8,56.7,29.95,WSW,237,0.0,0.0,96,0.00,,,0.00,Wunderground v.1.15,2013-06-09 07:15:00,
2013-06-09 03:20:00,57.7,56.6,29.95,WSW,237,0.0,0.0,96,0.00,,,0.00,Wunderground v.1.15,2013-06-09 07:20:00,
2013-06-09 03:25:00,57.6,56.5,29.95,WSW,237,0.0,0.0,96,0.00,,,0.00,Wunderground v.1.15,2013-06-09 07:25:00,
2013-06-09 03:30:00,57.5,56.4,29.96,WSW,237,0.0,0.0,96,0.00,,,0.00,Wunderground v.1.15,2013-06-09 07:30:00,
2013-06-09 03:35:00,57.4,56.6,29.96,WSW,237,0.0,0.0,97,0.00,,,0.00,Wunderground v.1.15,2013-06-09 07:35:00,
2013-06-09 03:40:00,57.3,56.2,29.96,WSW,237,0.0,0.0,96,0.00,,,0.00,Wunderground v.1.15,2013-06-09 07:40:00,
2013-06-09 03:45:00,57.3,56.2,29.96,WSW,237,0.0,0.0,96,0.00,,,0.00,Wunderground v.1.15,2013-06-09 07:45:00,
2013-06-09 03:50:00,57.1,56.0,29.96,WSW,237,0.0,0.0,96,0.00,,,0.00,Wunderground v.1.15,2013-06-09 07:50:00,
2013-06-09 03:55:00,57.0,55.9,29.97,WSW,237,0.0,0.0,96,0.00,,,0.00,Wunderground v.1.15,2013-06-09 07:55:00,
2013-06-09 04:00:00,56.9,56.1,29.97,WSW,237,0.0,0.0,97,0.00,,,0.00,Wunderground v.1.15,2013-06-09 08:00:00,
2013-06-09 04:05:00,56.9,56.1,29.97,WSW,237,0.0,0.0,97,0.00,,,0.00,Wunderground v.1.15,2013-06-09 08:05:00,
2013-06-09 04:10:00,56.9,56.1,29.97,WSW,237,0.0,0.0,97,0.00,,,0.00,Wunderground v.1.15,2013-06-09 08:10:00,
2013-06-09 04:15:00,57.0,56.2,29.97,WSW,237,0.0,0.0,97,0.00,,,0.00,Wunderground v.1.15,2013-06-09 08:15:00,
2013-06-09 04:20:00,57.1,56.3,29.97,WSW,237,0.0,0.0,97,0.00,,,0.00,Wunderground v.1.15,2013-06-09 08:20:00,
2013-06-09 04:25:00,57.1,56.3,29.96,WSW,237,0.0,0.0,97,0.00,,,0.00,Wunderground v.1.15,2013-06-09 08:25:00,
2013-06-09 04:30:00,57.2,56.4,29.96,WSW,237,0.0,0.0,97,0.00,,,0.00,Wunderground v.1.15,2013-06-09 08:30:00,
2013-06-09 04:35:00,57.2,56.4,29.97,WSW,237,0.0,0.0,97,0.00,,,0.00,Wunderground v.1.15,2013-06-09 08:35:00,
2013-06-09 04:40:00,57.2,56.4,29.98,WSW,237,0.0,0.0,97,0.00,,,0.00,Wunderground v.1.15,2013-06-09 08:40:00,
2013-06-09 04:45:00,57.3,56.5,29.97,WSW,237,0.0,0.0,97,0.00,,,0.00,Wunderground v.1.15,2013-06-09 08:45:00,
2013-06-09 04:50:00,57.3,56.5,29.97,WSW,237,0.0,0.0,97,0.00,,,0.00,Wunderground v.1.15,2013-06-09 08:50:00,
2013-06-09 04:55:00,57.4,56.6,29.97,WSW,237,0.0,0.0,97,0.00,,,0.00,Wunderground v.1.15,2013-06-09 08:55:00,
2013-06-09 05:01:00,57.4,56.6,29.97,WSW,237,0.0,0.0,97,0.00,,,0.00,Wunderground v.1.15,2013-06-09 09:01:00,
2013-06-09 05:05:00,57.4,56.6,29.97,WSW,237,0.0,0.0,97,0.00,,,0.00,Wunderground v.1.15,2013-06-09 09:05:00,
2013-06-09 05:10:00,57.4,56.6,29.98,WSW,237,0.0,0.0,97,0.00,,,0.00,Wunderground v.1.15,2013-06-09 09:10:00,
2013-06-09 05:15:00,57.2,56.4,29.97,WSW,237,0.0,0.0,97,0.00,,,0.00,Wunderground v.1.15,2013-06-09 09:15:00,
2013-06-09 05:20:00,57.2,56.4,29.98,WSW,237,0.0,0.0,97,0.00,,,0.00,Wunderground v.1.15,2013-06-09 09:20:00,
2013-06-09 05:25:00,57.2,56.4,29.98,WSW,237,0.0,0.0,97,0.00,,,0.00,Wunderground v.1.15,2013-06-09 09:25:00,
2013-06-09 05:30:00,57.2,56.4,29.98,WSW,237,0.0,0.0,97,0.00,,,0.00,Wunderground v.1.15,2013-06-09 09:30:00,
2013-06-09 05:35:00,57.2,56.4,29.99,WSW,237,0.0,0.0,97,0.00,,,0.00,Wunderground v.1.15,2013-06-09 09:35:00,
2013-06-09 05:40:00,57.2,56.4,29.99,WSW,237,0.0,0.0,97,0.00,,,0.00,Wunderground v.1.15,2013-06-09 09:40:00,
2013-06-09 05:46:00,57.2,56.4,29.99,WSW,237,0.0,0.0,97,0.00,,,0.00,Wunderground v.1.15,2013-06-09 09:46:00,
2013-06-09 05:50:00,57.3,56.5,29.99,WSW,237,0.0,0.0,97,0.00,,,0.00,Wunderground v.1.15,2013-06-09 09:50:00,
2013-06-09 05:55:00,57.3,56.5,30.00,WSW,237,0.0,0.0,97,0.00,,,0.00,Wunderground v.1.15,2013-06-09 09:55:00,
2013-06-09 06:00:00,57.3,56.5,29.99,WSW,237,0.0,0.0,97,0.00,,,0.00,Wunderground v.1.15,2013-06-09 10:00:00,
2013-06-09 06:05:00,57.3,56.5,30.00,WSW,237,0.0,0.0,97,0.00,,,0.00,Wunderground v.1.15,2013-06-09 10:05:00,
2013-06-09 06:11:00,57.4,56.6,30.00,WSW,237,0.0,0.0,97,0.00,,,0.00,Wunderground v.1.15,2013-06-09 10:11:00,
2013-06-09 06:15:00,57.5,56.7,30.00,WSW,237,0.0,0.0,97,0.00,,,0.00,Wunderground v.1.15,2013-06-09 10:15:00,
2013-06-09 06:20:00,57.6,56.8,30.00,WSW,237,0.0,0.0,97,0.00,,,0.00,Wunderground v.1.15,2013-06-09 10:20:00,
2013-06-09 06:25:00,57.7,57.1,30.00,WSW,237,0.0,0.0,98,0.00,,,0.00,Wunderground v.1.15,2013-06-09 10:25:00,
2013-06-09 06:30:00,57.8,57.2,30.00,WSW,237,0.0,0.0,98,0.00,,,0.00,Wunderground v.1.15,2013-06-09 10:30:00,
2013-06-09 06:35:00,58.0,57.4,30.00,WSW,237,0.0,0.0,98,0.00,,,0.00,Wunderground v.1.15,2013-06-09 10:35:00,
2013-06-09 06:41:00,58.2,57.6,30.00,WSW,237,0.0,2.0,98,0.00,,,0.00,Wunderground v.1.15,2013-06-09 10:41:00,
2013-06-09 06:45:00,58.2,57.4,30.00,WSW,237,0.0,2.0,97,0.00,,,0.00,Wunderground v.1.15,2013-06-09 10:45:00,
2013-06-09 06:50:00,58.0,57.2,30.00,WSW,237,1.0,1.0,97,0.00,,,0.00,Wunderground v.1.15,2013-06-09 10:50:00,
2013-06-09 06:55:00,58.0,57.2,30.01,WSW,237,1.0,1.0,97,0.00,,,0.00,Wunderground v.1.15,2013-06-09 10:55:00,
2013-06-09 07:01:00,58.0,57.2,30.01,WSW,237,1.0,1.0,97,0.00,,,0.00,Wunderground v.1.15,2013-06-09 11:01:00,
2013-06-09 07:05:00,58.3,57.5,30.01,WSW,237,0.0,1.0,97,0.00,,,0.00,Wunderground v.1.15,2013-06-09 11:05:00,
2013-06-09 07:10:00,58.3,57.5,30.01,WSW,237,0.0,2.0,97,0.00,,,0.00,Wunderground v.1.15,2013-06-09 11:10:00,
2013-06-09 07:15:00,58.2,57.4,30.01,WSW,237,0.0,2.0,97,0.00,,,0.00,Wunderground v.1.15,2013-06-09 11:15:00,
2013-06-09 07:20:00,58.1,57.3,30.01,WSW,237,1.0,1.0,97,0.00,,,0.00,Wunderground v.1.15,2013-06-09 11:20:00,
2013-06-09 07:26:00,57.9,56.8,30.01,WSW,237,0.0,1.0,96,0.00,,,0.00,Wunderground v.1.15,2013-06-09 11:26:00,
2013-06-09 07:30:00,57.8,56.7,30.02,WSW,237,0.0,0.0,96,0.00,,,0.00,Wunderground v.1.15,2013-06-09 11:30:00,
2013-06-09 07:35:00,57.6,56.5,30.02,WSW,237,1.0,1.0,96,0.00,,,0.00,Wunderground v.1.15,2013-06-09 11:35:00,
2013-06-09 07:41:00,57.6,56.5,30.02,WSW,237,1.0,1.0,96,0.00,,,0.00,Wunderground v.1.15,2013-06-09 11:41:00,
2013-06-09 07:45:00,57.8,56.7,30.02,WSW,237,1.0,1.0,96,0.00,,,0.00,Wunderground v.1.15,2013-06-09 11:45:00,
2013-06-09 07:50:00,57.9,56.8,30.02,WSW,237,1.0,1.0,96,0.00,,,0.00,Wunderground v.1.15,2013-06-09 11:50:00,
2013-06-09 07:55:00,58.0,56.9,30.03,ESE,105,2.0,4.0,96,0.00,,,0.00,Wunderground v.1.15,2013-06-09 11:55:00,
2013-06-09 08:01:00,57.8,56.4,30.03,ENE,68,2.0,2.0,95,0.00,,,0.00,Wunderground v.1.15,2013-06-09 12:01:00,
2013-06-09 08:06:00,57.8,56.4,30.03,ENE,70,2.0,2.0,95,0.00,,,0.00,Wunderground v.1.15,2013-06-09 12:06:00,
2013-06-09 08:16:00,58.0,56.6,30.03,ENE,70,1.0,1.0,95,0.00,,,0.00,Wunderground v.1.15,2013-06-09 12:16:00,
2013-06-09 08:25:00,58.0,56.6,30.03,East,89,2.0,2.0,95,0.00,,,0.00,Wunderground v.1.15,2013-06-09 12:25:00,
2013-06-09 08:31:00,57.8,56.4,30.04,East,100,2.0,3.0,95,0.00,,,0.00,Wunderground v.1.15,2013-06-09 12:31:00,
2013-06-09 08:36:00,57.7,56.3,30.04,East,96,2.0,3.0,95,0.00,,,0.00,Wunderground v.1.15,2013-06-09 12:36:00,
2013-06-09 08:40:00,57.5,56.1,30.04,East,92,2.0,6.0,95,0.00,,,0.00,Wunderground v.1.15,2013-06-09 12:40:00,
2013-06-09 08:46:00,57.5,56.1,30.04,East,92,2.0,6.0,95,0.00,,,0.00,Wunderground v.1.15,2013-06-09 12:46:00,
2013-06-09 08:51:00,57.6,56.2,30.04,East,90,2.0,2.0,95,0.00,,,0.00,Wunderground v.1.15,2013-06-09 12:51:00,
2013-06-09 08:55:00,57.6,56.2,30.04,East,90,2.0,2.0,95,0.00,,,0.00,Wunderground v.1.15,2013-06-09 12:55:00,
2013-06-09 09:01:00,57.8,56.7,30.04,SE,128,2.0,2.0,96,0.00,,,0.00,Wunderground v.1.15,2013-06-09 13:01:00,
2013-06-09 09:06:00,57.8,56.4,30.04,ESE,122,1.0,2.0,95,0.00,,,0.00,Wunderground v.1.15,2013-06-09 13:06:00,
2013-06-09 09:10:00,57.8,56.4,30.04,East,100,2.0,2.0,95,0.00,,,0.00,Wunderground v.1.15,2013-06-09 13:10:00,
2013-06-09 09:15:00,57.9,56.2,30.04,East,86,2.0,5.0,94,0.00,,,0.00,Wunderground v.1.15,2013-06-09 13:15:00,
2013-06-09 09:21:00,57.9,56.2,30.03,East,87,2.0,4.0,94,0.00,,,0.00,Wunderground v.1.15,2013-06-09 13:21:00,
2013-06-09 09:25:00,58.1,56.4,30.03,East,90,3.0,4.0,94,0.00,,,0.00,Wunderground v.1.15,2013-06-09 13:25:00,
2013-06-09 09:30:00,58.9,57.2,30.03,ENE,67,3.0,5.0,94,0.00,,,0.00,Wunderground v.1.15,2013-06-09 13:30:00,
2013-06-09 09:36:00,59.9,57.9,30.03,ENE,70,3.0,5.0,93,0.00,,,0.00,Wunderground v.1.15,2013-06-09 13:36:00,
2013-06-09 09:41:00,59.9,57.0,30.03,East,87,4.0,4.0,90,0.00,,,0.00,Wunderground v.1.15,2013-06-09 13:41:00,
2013-06-09 09:51:00,61.2,58.2,30.04,East,89,2.0,2.0,90,0.00,,,0.00,Wunderground v.1.15,2013-06-09 13:51:00,
2013-06-09 09:55:00,61.5,58.2,30.04,ENE,73,3.0,3.0,89,0.00,,,0.00,Wunderground v.1.15,2013-06-09 13:55:00,
2013-06-09 10:01:00,61.6,58.0,30.04,East,84,4.0,4.0,88,0.00,,,0.00,Wunderground v.1.15,2013-06-09 14:01:00,
2013-06-09 10:11:00,62.2,58.6,30.03,ENE,67,3.0,5.0,88,0.00,,,0.00,Wunderground v.1.15,2013-06-09 14:11:00,
2013-06-09 10:16:00,62.3,58.7,30.03,ENE,64,3.0,5.0,88,0.00,,,0.00,Wunderground v.1.15,2013-06-09 14:16:00,
2013-06-09 10:20:00,62.3,58.7,30.03,NE,54,3.0,4.0,88,0.00,,,0.00,Wunderground v.1.15,2013-06-09 14:20:00,
2013-06-09 10:26:00,62.7,59.1,30.03,ENE,60,3.0,4.0,88,0.00,,,0.00,Wunderground v.1.15,2013-06-09 14:26:00,
2013-06-09 10:30:00,63.1,59.5,30.03,ENE,60,2.0,2.0,88,0.00,,,0.00,Wunderground v.1.15,2013-06-09 14:30:00,
2013-06-09 10:36:00,63.4,59.1,30.03,ENE,67,3.0,5.0,86,0.00,,,0.00,Wunderground v.1.15,2013-06-09 14:36:00,
2013-06-09 10:41:00,63.5,58.9,30.03,ENE,69,3.0,3.0,85,0.00,,,0.00,Wunderground v.1.15,2013-06-09 14:41:00,
2013-06-09 10:45:00,63.4,58.5,30.03,East,85,3.0,3.0,84,0.00,,,0.00,Wunderground v.1.15,2013-06-09 14:45:00,
2013-06-09 10:51:00,63.2,58.3,30.03,East,81,3.0,4.0,84,0.00,,,0.00,Wunderground v.1.15,2013-06-09 14:51:00,
2013-06-09 10:56:00,63.3,58.7,30.03,ENE,77,2.0,4.0,85,0.00,,,0.00,Wunderground v.1.15,2013-06-09 14:56:00,
2013-06-09 11:01:00,63.5,59.2,30.03,ENE,67,3.0,3.0,86,0.00,,,0.00,Wunderground v.1.15,2013-06-09 15:01:00,
2013-06-09 11:10:00,64.1,59.2,30.03,ENE,68,2.0,2.0,84,0.00,,,0.00,Wunderground v.1.15,2013-06-09 15:10:00,
2013-06-09 11:16:00,64.1,59.2,30.03,East,83,1.0,4.0,84,0.00,,,0.00,Wunderground v.1.15,2013-06-09 15:16:00,
2013-06-09 11:21:00,64.5,59.9,30.03,East,83,1.0,3.0,85,0.00,,,0.00,Wunderground v.1.15,2013-06-09 15:21:00,
2013-06-09 11:26:00,64.1,58.8,30.03,ESE,123,2.0,3.0,83,0.00,,,0.00,Wunderground v.1.15,2013-06-09 15:26:00,
2013-06-09 11:31:00,64.1,59.5,30.02,ESE,123,1.0,1.0,85,0.00,,,0.00,Wunderground v.1.15,2013-06-09 15:31:00,
2013-06-09 11:36:00,64.6,60.0,30.02,East,92,1.0,3.0,85,0.00,,,0.00,Wunderground v.1.15,2013-06-09 15:36:00,
2013-06-09 11:40:00,64.7,59.1,30.03,East,81,2.0,3.0,82,0.00,,,0.00,Wunderground v.1.15,2013-06-09 15:40:00,
2013-06-09 11:46:00,64.0,58.4,30.03,ENE,72,3.0,3.0,82,0.00,,,0.00,Wunderground v.1.15,2013-06-09 15:46:00,
2013-06-09 11:51:00,63.1,57.9,30.03,ENE,73,4.0,4.0,83,0.00,,,0.00,Wunderground v.1.15,2013-06-09 15:51:00,
2013-06-09 11:56:00,62.6,57.7,30.03,ENE,72,4.0,4.0,84,0.00,,,0.00,Wunderground v.1.15,2013-06-09 15:56:00,
2013-06-09 12:01:00,62.7,57.5,30.02,ENE,69,4.0,4.0,83,0.00,,,0.00,Wunderground v.1.15,2013-06-09 16:01:00,
2013-06-09 12:06:00,62.2,57.3,30.02,East,85,4.0,6.0,84,0.00,,,0.00,Wunderground v.1.15,2013-06-09 16:06:00,
2013-06-09 12:11:00,61.8,57.2,30.02,ENE,77,4.0,4.0,85,0.00,,,0.00,Wunderground v.1.15,2013-06-09 16:11:00,
2013-06-09 12:15:00,62.0,57.8,30.02,East,80,4.0,4.0,86,0.00,,,0.00,Wunderground v.1.15,2013-06-09 16:15:00,
2013-06-09 12:21:00,61.8,57.2,30.02,East,83,4.0,4.0,85,0.00,,,0.00,Wunderground v.1.15,2013-06-09 16:21:00,
2013-06-09 12:26:00,61.5,56.9,30.02,ENE,77,5.0,5.0,85,0.00,,,0.00,Wunderground v.1.15,2013-06-09 16:26:00,
2013-06-09 12:36:00,62.1,58.2,30.02,ENE,70,3.0,4.0,87,0.00,,,0.00,Wunderground v.1.15,2013-06-09 16:36:00,
2013-06-09 12:41:00,62.6,58.0,30.02,ENE,74,3.0,3.0,85,0.00,,,0.00,Wunderground v.1.15,2013-06-09 16:41:00,
2013-06-09 12:46:00,62.6,58.0,30.02,ENE,73,3.0,6.0,85,0.00,,,0.00,Wunderground v.1.15,2013-06-09 16:46:00,
2013-06-09 12:51:00,62.3,57.7,30.02,ENE,72,3.0,3.0,85,0.00,,,0.00,Wunderground v.1.15,2013-06-09 16:51:00,
2013-06-09 13:01:00,62.7,58.1,30.02,ENE,68,2.0,2.0,85,0.00,,,0.00,Wunderground v.1.15,2013-06-09 17:01:00,
2013-06-09 13:06:00,62.9,58.3,30.02,NE,40,2.0,2.0,85,0.00,,,0.00,Wunderground v.1.15,2013-06-09 17:06:00,
2013-06-09 13:11:00,62.6,57.7,30.01,East,95,3.0,3.0,84,0.00,,,0.00,Wunderground v.1.15,2013-06-09 17:11:00,
2013-06-09 13:16:00,62.4,57.5,30.02,NE,56,4.0,4.0,84,0.00,,,0.00,Wunderground v.1.15,2013-06-09 17:16:00,
2013-06-09 13:21:00,62.4,57.8,30.01,ENE,76,4.0,4.0,85,0.00,,,0.00,Wunderground v.1.15,2013-06-09 17:21:00,
2013-06-09 13:26:00,63.0,58.7,30.01,ENE,71,3.0,5.0,86,0.00,,,0.00,Wunderground v.1.15,2013-06-09 17:26:00,
2013-06-09 13:36:00,63.9,59.0,30.01,ENE,59,3.0,8.0,84,0.00,,,0.00,Wunderground v.1.15,2013-06-09 17:36:00,
2013-06-09 13:41:00,64.3,59.0,30.01,ENE,68,3.0,3.0,83,0.00,,,0.00,Wunderground v.1.15,2013-06-09 17:41:00,
2013-06-09 13:46:00,64.0,58.7,30.01,ESE,113,3.0,3.0,83,0.00,,,0.00,Wunderground v.1.15,2013-06-09 17:46:00,
2013-06-09 13:51:00,64.4,59.8,30.01,East,90,2.0,2.0,85,0.00,,,0.00,Wunderground v.1.15,2013-06-09 17:51:00,
2013-06-09 13:56:00,65.2,59.9,30.01,ENE,70,2.0,3.0,83,0.00,,,0.00,Wunderground v.1.15,2013-06-09 17:56:00,
2013-06-09 14:01:00,66.0,60.7,30.01,ENE,69,2.0,2.0,83,0.00,,,0.00,Wunderground v.1.15,2013-06-09 18:01:00,
2013-06-09 14:06:00,66.4,60.4,30.00,ENE,71,2.0,5.0,81,0.00,,,0.00,Wunderground v.1.15,2013-06-09 18:06:00,
2013-06-09 14:11:00,66.8,60.8,30.00,East,79,3.0,3.0,81,0.00,,,0.00,Wunderground v.1.15,2013-06-09 18:11:00,
2013-06-09 14:16:00,67.3,60.9,30.00,East,79,2.0,3.0,80,0.00,,,0.00,Wunderground v.1.15,2013-06-09 18:16:00,
2013-06-09 14:21:00,67.5,60.0,30.00,ENE,76,2.0,2.0,77,0.00,,,0.00,Wunderground v.1.15,2013-06-09 18:21:00,
2013-06-09 14:26:00,67.4,60.3,30.00,East,79,2.0,2.0,78,0.00,,,0.00,Wunderground v.1.15,2013-06-09 18:26:00,
2013-06-09 14:31:00,66.4,59.0,30.00,ENE,75,3.0,3.0,77,0.00,,,0.00,Wunderground v.1.15,2013-06-09 18:31:00,
2013-06-09 14:36:00,66.1,59.4,30.00,ENE,75,2.0,3.0,79,0.00,,,0.00,Wunderground v.1.15,2013-06-09 18:36:00,
2013-06-09 14:41:00,65.7,58.7,30.00,ENE,74,2.0,4.0,78,0.00,,,0.00,Wunderground v.1.15,2013-06-09 18:41:00,
2013-06-09 14:46:00,63.9,58.0,30.00,East,81,3.0,4.0,81,0.00,,,0.00,Wunderground v.1.15,2013-06-09 18:46:00,
2013-06-09 14:51:00,63.7,58.4,30.00,East,79,3.0,3.0,83,0.00,,,0.00,Wunderground v.1.15,2013-06-09 18:51:00,
2013-06-09 14:56:00,63.5,58.2,30.00,East,79,2.0,3.0,83,0.00,,,0.00,Wunderground v.1.15,2013-06-09 18:56:00,
2013-06-09 15:01:00,63.2,58.6,30.00,ENE,74,2.0,2.0,85,0.00,,,0.00,Wunderground v.1.15,2013-06-09 19:01:00,
2013-06-09 15:06:00,63.8,59.2,30.00,East,85,2.0,5.0,85,0.00,,,0.00,Wunderground v.1.15,2013-06-09 19:06:00,
2013-06-09 15:11:00,63.9,59.0,30.00,East,83,2.0,2.0,84,0.00,,,0.00,Wunderground v.1.15,2013-06-09 19:11:00,
2013-06-09 15:16:00,64.3,59.4,30.00,ENE,73,3.0,3.0,84,0.00,,,0.00,Wunderground v.1.15,2013-06-09 19:16:00,
2013-06-09 15:21:00,64.4,59.5,30.00,NE,52,3.0,3.0,84,0.00,,,0.00,Wunderground v.1.15,2013-06-09 19:21:00,
2013-06-09 15:26:00,64.6,59.3,30.00,ENE,67,3.0,4.0,83,0.00,,,0.00,Wunderground v.1.15,2013-06-09 19:26:00,
2013-06-09 15:31:00,65.1,60.1,30.00,ENE,67,3.0,3.0,84,0.00,,,0.00,Wunderground v.1.15,2013-06-09 19:31:00,
2013-06-09 15:36:00,65.9,60.6,30.00,ENE,67,2.0,3.0,83,0.00,,,0.00,Wunderground v.1.15,2013-06-09 19:36:00,
2013-06-09 15:41:00,66.8,60.8,30.00,East,82,2.0,2.0,81,0.00,,,0.00,Wunderground v.1.15,2013-06-09 19:41:00,
2013-06-09 15:46:00,67.7,60.6,30.00,NNE,12,2.0,2.0,78,0.00,,,0.00,Wunderground v.1.15,2013-06-09 19:46:00,
2013-06-09 15:51:00,67.6,60.1,30.00,WSW,242,2.0,2.0,77,0.00,,,0.00,Wunderground v.1.15,2013-06-09 19:51:00,
2013-06-09 15:56:00,67.6,60.5,30.00,SW,229,2.0,2.0,78,0.00,,,0.00,Wunderground v.1.15,2013-06-09 19:56:00,
2013-06-09 16:01:00,67.5,59.7,30.00,SSW,205,1.0,1.0,76,0.00,,,0.00,Wunderground v.1.15,2013-06-09 20:01:00,
2013-06-09 16:06:00,67.1,59.3,30.00,SSW,200,1.0,1.0,76,0.00,,,0.00,Wunderground v.1.15,2013-06-09 20:06:00,
2013-06-09 16:15:00,65.9,58.5,30.00,SSW,205,2.0,5.0,77,0.00,,,0.00,Wunderground v.1.15,2013-06-09 20:15:00,
2013-06-09 16:20:00,65.2,58.5,30.00,SSW,205,2.0,5.0,79,0.00,,,0.00,Wunderground v.1.15,2013-06-09 20:20:00,
2013-06-09 16:25:00,64.5,58.2,30.00,SSW,210,2.0,5.0,80,0.00,,,0.00,Wunderground v.1.15,2013-06-09 20:25:00,
2013-06-09 16:30:00,64.3,58.3,30.00,SSE,160,3.0,5.0,81,0.00,,,0.00,Wunderground v.1.15,2013-06-09 20:30:00,
2013-06-09 16:35:00,64.2,58.2,30.00,WSW,239,3.0,3.0,81,0.00,,,0.00,Wunderground v.1.15,2013-06-09 20:35:00,
2013-06-09 16:40:00,64.0,58.4,30.00,SW,225,3.0,3.0,82,0.00,,,0.00,Wunderground v.1.15,2013-06-09 20:40:00,
2013-06-09 16:45:00,63.9,58.3,30.00,SSE,162,3.0,3.0,82,0.00,,,0.00,Wunderground v.1.15,2013-06-09 20:45:00,
2013-06-09 16:50:00,64.0,58.1,30.00,SE,132,3.0,3.0,81,0.00,,,0.00,Wunderground v.1.15,2013-06-09 20:50:00,
2013-06-09 16:55:00,64.0,58.1,30.00,West,262,3.0,3.0,81,0.00,,,0.00,Wunderground v.1.15,2013-06-09 20:55:00,
2013-06-09 17:00:00,64.0,58.4,30.00,WSW,250,2.0,2.0,82,0.00,,,0.00,Wunderground v.1.15,2013-06-09 21:00:00,
2013-06-09 17:05:00,64.1,58.1,30.00,WSW,250,1.0,3.0,81,0.00,,,0.00,Wunderground v.1.15,2013-06-09 21:05:00,
2013-06-09 17:10:00,63.9,58.0,30.00,WSW,255,2.0,2.0,81,0.00,,,0.00,Wunderground v.1.15,2013-06-09 21:10:00,
2013-06-09 17:15:00,63.6,57.7,30.00,WSW,255,2.0,2.0,81,0.00,,,0.00,Wunderground v.1.15,2013-06-09 21:15:00,
2013-06-09 17:20:00,63.7,58.1,30.00,WSW,255,2.0,2.0,82,0.00,,,0.00,Wunderground v.1.15,2013-06-09 21:20:00,
2013-06-09 17:25:00,64.4,58.4,30.00,WSW,251,2.0,4.0,81,0.00,,,0.00,Wunderground v.1.15,2013-06-09 21:25:00,
2013-06-09 17:30:00,64.7,58.4,30.00,WSW,252,3.0,3.0,80,0.00,,,0.00,Wunderground v.1.15,2013-06-09 21:30:00,
2013-06-09 17:35:00,64.7,58.0,30.00,West,263,3.0,3.0,79,0.00,,,0.00,Wunderground v.1.15,2013-06-09 21:35:00,
2013-06-09 17:40:00,64.4,57.7,30.00,West,263,3.0,4.0,79,0.00,,,0.00,Wunderground v.1.15,2013-06-09 21:40:00,
2013-06-09 17:45:00,64.7,58.0,30.00,West,263,3.0,4.0,79,0.00,,,0.00,Wunderground v.1.15,2013-06-09 21:45:00,
2013-06-09 17:50:00,65.2,58.5,30.00,West,263,2.0,2.0,79,0.00,,,0.00,Wunderground v.1.15,2013-06-09 21:50:00,
2013-06-09 17:55:00,65.5,58.5,30.00,West,263,2.0,2.0,78,0.00,,,0.00,Wunderground v.1.15,2013-06-09 21:55:00,
2013-06-09 18:00:00,65.6,58.6,30.00,West,263,1.0,1.0,78,0.00,,,0.00,Wunderground v.1.15,2013-06-09 22:00:00,
2013-06-09 18:10:00,66.7,59.6,30.00,West,263,0.0,0.0,78,0.00,,,0.00,Wunderground v.1.15,2013-06-09 22:10:00,
2013-06-09 18:15:00,67.4,59.9,30.00,West,263,0.0,0.0,77,0.00,,,0.00,Wunderground v.1.15,2013-06-09 22:15:00,
2013-06-09 18:20:00,67.6,59.4,30.00,West,263,0.0,0.0,75,0.00,,,0.00,Wunderground v.1.15,2013-06-09 22:20:00,
2013-06-09 18:25:00,67.9,59.7,30.00,West,263,0.0,0.0,75,0.00,,,0.00,Wunderground v.1.15,2013-06-09 22:25:00,
2013-06-09 18:30:00,68.2,60.0,30.00,West,263,0.0,0.0,75,0.00,,,0.00,Wunderground v.1.15,2013-06-09 22:30:00,
2013-06-09 18:35:00,68.1,59.1,30.00,West,263,0.0,1.0,73,0.00,,,0.00,Wunderground v.1.15,2013-06-09 22:35:00,
2013-06-09 18:40:00,67.8,58.8,30.00,West,263,0.0,0.0,73,0.00,,,0.00,Wunderground v.1.15,2013-06-09 22:40:00,
2013-06-09 18:45:00,67.7,59.1,30.01,West,263,0.0,0.0,74,0.00,,,0.00,Wunderground v.1.15,2013-06-09 22:45:00,
2013-06-09 18:50:00,67.8,59.2,30.00,West,263,0.0,0.0,74,0.00,,,0.00,Wunderground v.1.15,2013-06-09 22:50:00,
2013-06-09 18:55:00,67.9,59.7,30.00,West,263,0.0,0.0,75,0.00,,,0.00,Wunderground v.1.15,2013-06-09 22:55:00,
2013-06-09 19:00:00,67.8,60.0,30.01,West,263,0.0,0.0,76,0.00,,,0.00,Wunderground v.1.15,2013-06-09 23:00:00,
2013-06-09 19:05:00,67.7,59.9,30.01,West,263,0.0,1.0,76,0.00,,,0.00,Wunderground v.1.15,2013-06-09 23:05:00,
2013-06-09 19:10:00,67.4,59.6,30.01,West,263,0.0,0.0,76,0.00,,,0.00,Wunderground v.1.15,2013-06-09 23:10:00,
2013-06-09 19:15:00,67.1,59.6,30.01,West,263,0.0,0.0,77,0.00,,,0.00,Wunderground v.1.15,2013-06-09 23:15:00,
2013-06-09 19:20:00,66.9,59.5,30.01,West,263,0.0,0.0,77,0.00,,,0.00,Wunderground v.1.15,2013-06-09 23:20:00,
2013-06-09 19:25:00,66.6,59.5,30.01,West,263,0.0,0.0,78,0.00,,,0.00,Wunderground v.1.15,2013-06-09 23:25:00,
2013-06-09 19:30:00,66.3,59.2,30.01,West,263,0.0,0.0,78,0.00,,,0.00,Wunderground v.1.15,2013-06-09 23:30:00,
2013-06-09 19:35:00,65.8,59.1,30.01,West,263,0.0,0.0,79,0.00,,,0.00,Wunderground v.1.15,2013-06-09 23:35:00,
2013-06-09 19:40:00,65.4,59.1,30.01,West,263,0.0,0.0,80,0.00,,,0.00,Wunderground v.1.15,2013-06-09 23:40:00,
2013-06-09 19:45:00,64.7,58.7,30.01,West,263,0.0,0.0,81,0.00,,,0.00,Wunderground v.1.15,2013-06-09 23:45:00,
2013-06-09 19:50:00,64.3,58.7,30.01,West,263,0.0,1.0,82,0.00,,,0.00,Wunderground v.1.15,2013-06-09 23:50:00,
2013-06-09 20:00:00,63.5,58.6,30.01,West,263,0.0,0.0,84,0.00,,,0.00,Wunderground v.1.15,2013-06-10 00:00:00,
2013-06-09 20:10:00,62.9,58.3,30.02,West,263,0.0,0.0,85,0.00,,,0.00,Wunderground v.1.15,2013-06-10 00:10:00,
2013-06-09 20:15:00,62.5,57.9,30.02,West,263,0.0,0.0,85,0.00,,,0.00,Wunderground v.1.15,2013-06-10 00:15:00,
2013-06-09 20:20:00,62.0,57.4,30.02,West,263,0.0,0.0,85,0.00,,,0.00,Wunderground v.1.15,2013-06-10 00:20:00,
2013-06-09 20:25:00,61.6,57.4,30.02,West,263,0.0,0.0,86,0.00,,,0.00,Wunderground v.1.15,2013-06-10 00:25:00,
2013-06-09 20:30:00,61.3,57.1,30.02,West,263,0.0,0.0,86,0.00,,,0.00,Wunderground v.1.15,2013-06-10 00:30:00,
2013-06-09 20:35:00,60.9,56.7,30.02,West,263,0.0,0.0,86,0.00,,,0.00,Wunderground v.1.15,2013-06-10 00:35:00,
2013-06-09 20:40:00,60.6,56.7,30.02,West,263,0.0,0.0,87,0.00,,,0.00,Wunderground v.1.15,2013-06-10 00:40:00,
2013-06-09 20:45:00,60.4,56.5,30.02,West,263,0.0,0.0,87,0.00,,,0.00,Wunderground v.1.15,2013-06-10 00:45:00,
2013-06-09 20:50:00,60.2,56.6,30.02,West,263,0.0,0.0,88,0.00,,,0.00,Wunderground v.1.15,2013-06-10 00:50:00,
2013-06-09 20:55:00,60.1,56.5,30.03,West,263,0.0,0.0,88,0.00,,,0.00,Wunderground v.1.15,2013-06-10 00:55:00,
2013-06-09 21:00:00,60.1,56.5,30.03,West,263,0.0,0.0,88,0.00,,,0.00,Wunderground v.1.15,2013-06-10 01:00:00,
2013-06-09 21:05:00,60.0,56.4,30.03,West,263,0.0,0.0,88,0.00,,,0.00,Wunderground v.1.15,2013-06-10 01:05:00,
2013-06-09 21:10:00,59.9,56.3,30.04,West,263,0.0,1.0,88,0.00,,,0.00,Wunderground v.1.15,2013-06-10 01:10:00,
2013-06-09 21:15:00,59.8,56.2,30.04,West,263,1.0,1.0,88,0.00,,,0.00,Wunderground v.1.15,2013-06-10 01:15:00,
2013-06-09 21:20:00,59.7,56.5,30.04,West,263,1.0,1.0,89,0.00,,,0.00,Wunderground v.1.15,2013-06-10 01:20:00,
2013-06-09 21:25:00,59.7,56.5,30.04,West,263,0.0,1.0,89,0.00,,,0.00,Wunderground v.1.15,2013-06-10 01:25:00,
2013-06-09 21:30:00,59.6,56.4,30.05,West,263,0.0,0.0,89,0.00,,,0.00,Wunderground v.1.15,2013-06-10 01:30:00,
2013-06-09 21:35:00,59.5,56.3,30.05,West,263,0.0,0.0,89,0.00,,,0.00,Wunderground v.1.15,2013-06-10 01:35:00,
2013-06-09 21:40:00,59.4,56.2,30.05,West,263,0.0,0.0,89,0.00,,,0.00,Wunderground v.1.15,2013-06-10 01:40:00,
2013-06-09 21:45:00,59.3,56.1,30.05,West,263,0.0,0.0,89,0.00,,,0.00,Wunderground v.1.15,2013-06-10 01:45:00,
2013-06-09 21:50:00,59.2,56.3,30.06,West,263,0.0,0.0,90,0.00,,,0.00,Wunderground v.1.15,2013-06-10 01:50:00,
2013-06-09 21:55:00,59.1,56.2,30.06,West,263,0.0,0.0,90,0.00,,,0.00,Wunderground v.1.15,2013-06-10 01:55:00,
2013-06-09 22:00:00,59.0,56.1,30.06,West,263,0.0,0.0,90,0.00,,,0.00,Wunderground v.1.15,2013-06-10 02:00:00,
2013-06-09 22:05:00,58.9,56.0,30.06,West,263,0.0,0.0,90,0.00,,,0.00,Wunderground v.1.15,2013-06-10 02:05:00,
2013-06-09 22:10:00,58.8,56.2,30.06,West,263,0.0,0.0,91,0.00,,,0.00,Wunderground v.1.15,2013-06-10 02:10:00,
2013-06-09 22:15:00,58.8,56.2,30.06,West,263,0.0,0.0,91,0.00,,,0.00,Wunderground v.1.15,2013-06-10 02:15:00,
2013-06-09 22:20:00,58.7,56.1,30.06,West,263,0.0,0.0,91,0.00,,,0.00,Wunderground v.1.15,2013-06-10 02:20:00,
2013-06-09 22:25:00,58.7,56.1,30.06,West,263,1.0,1.0,91,0.00,,,0.00,Wunderground v.1.15,2013-06-10 02:25:00,
2013-06-09 22:30:00,58.6,56.0,30.07,West,263,1.0,1.0,91,0.00,,,0.00,Wunderground v.1.15,2013-06-10 02:30:00,
2013-06-09 22:35:00,58.5,55.9,30.07,West,263,0.0,1.0,91,0.00,,,0.00,Wunderground v.1.15,2013-06-10 02:35:00,
2013-06-09 22:40:00,58.4,56.1,30.07,West,263,0.0,0.0,92,0.00,,,0.00,Wunderground v.1.15,2013-06-10 02:40:00,
2013-06-09 22:45:00,58.3,56.0,30.07,West,263,0.0,0.0,92,0.00,,,0.00,Wunderground v.1.15,2013-06-10 02:45:00,
2013-06-09 22:50:00,58.2,55.9,30.07,West,263,0.0,0.0,92,0.00,,,0.00,Wunderground v.1.15,2013-06-10 02:50:00,
2013-06-09 22:55:00,58.1,55.8,30.07,West,263,0.0,1.0,92,0.00,,,0.00,Wunderground v.1.15,2013-06-10 02:55:00,
2013-06-09 23:00:00,58.1,55.8,30.07,West,263,0.0,0.0,92,0.00,,,0.00,Wunderground v.1.15,2013-06-10 03:00:00,
2013-06-09 23:05:00,58.1,56.1,30.07,West,263,0.0,0.0,93,0.00,,,0.00,Wunderground v.1.15,2013-06-10 03:05:00,
2013-06-09 23:10:00,58.2,56.2,30.07,West,263,0.0,0.0,93,0.00,,,0.00,Wunderground v.1.15,2013-06-10 03:10:00,
2013-06-09 23:15:00,58.2,56.2,30.08,West,263,0.0,0.0,93,0.00,,,0.00,Wunderground v.1.15,2013-06-10 03:15:00,
2013-06-09 23:20:00,58.3,56.3,30.08,West,263,0.0,0.0,93,0.00,,,0.00,Wunderground v.1.15,2013-06-10 03:20:00,
2013-06-09 23:25:00,58.4,56.4,30.08,West,263,0.0,0.0,93,0.00,,,0.00,Wunderground v.1.15,2013-06-10 03:25:00,
2013-06-09 23:30:00,58.4,56.4,30.09,West,263,0.0,0.0,93,0.00,,,0.00,Wunderground v.1.15,2013-06-10 03:30:00,
2013-06-09 23:35:00,58.5,56.5,30.09,West,263,0.0,1.0,93,0.00,,,0.00,Wunderground v.1.15,2013-06-10 03:35:00,
2013-06-09 23:40:00,58.5,56.5,30.09,West,263,0.0,0.0,93,0.00,,,0.00,Wunderground v.1.15,2013-06-10 03:40:00,
2013-06-09 23:45:00,58.5,56.5,30.09,West,263,0.0,0.0,93,0.00,,,0.00,Wunderground v.1.15,2013-06-10 03:45:00,
2013-06-09 23:50:00,58.6,56.6,30.09,West,263,0.0,0.0,93,0.00,,,0.00,Wunderground v.1.15,2013-06-10 03:50:00,
2013-06-09 23:55:00,58.6,56.6,30.09,West,263,0.0,0.0,93,0.00,,,0.00,Wunderground v.1.15,2013-06-10 03:55:00,